sensor_id;sensor_type;location;lat;lon;timestamp;P1;durP1;ratioP1;P2;durP2;ratioP2
52674;SDS011;38569;52.722;6.440;2023-04-03T00:01:28;4.80;;;1.42;;
52674;SDS011;38569;52.722;6.440;2023-04-03T00:03:54;3.03;;;1.60;;
52674;SDS011;38569;52.722;6.440;2023-04-03T00:06:20;2.53;;;1.52;;
52674;SDS011;38569;52.722;6.440;2023-04-03T00:08:47;2.50;;;1.27;;
52674;SDS011;38569;52.722;6.440;2023-04-03T00:11:13;2.70;;;1.60;;
52674;SDS011;38569;52.722;6.440;2023-04-03T00:13:40;5.82;;;2.10;;
52674;SDS011;38569;52.722;6.440;2023-04-03T00:16:07;5.30;;;1.88;;
52674;SDS011;38569;52.722;6.440;2023-04-03T00:18:34;5.90;;;1.83;;
52674;SDS011;38569;52.722;6.440;2023-04-03T00:21:00;2.80;;;1.50;;
52674;SDS011;38569;52.722;6.440;2023-04-03T00:23:26;5.18;;;1.80;;
52674;SDS011;38569;52.722;6.440;2023-04-03T00:25:52;4.60;;;1.60;;
52674;SDS011;38569;52.722;6.440;2023-04-03T00:28:18;2.80;;;2.10;;
52674;SDS011;38569;52.722;6.440;2023-04-03T00:30:44;2.55;;;1.70;;
52674;SDS011;38569;52.722;6.440;2023-04-03T00:33:13;4.28;;;1.77;;
52674;SDS011;38569;52.722;6.440;2023-04-03T00:35:39;3.30;;;1.92;;
52674;SDS011;38569;52.722;6.440;2023-04-03T00:38:08;4.30;;;1.70;;
52674;SDS011;38569;52.722;6.440;2023-04-03T00:40:35;3.28;;;1.60;;
52674;SDS011;38569;52.722;6.440;2023-04-03T00:43:05;3.75;;;2.00;;
52674;SDS011;38569;52.722;6.440;2023-04-03T00:45:39;2.90;;;1.80;;
52674;SDS011;38569;52.722;6.440;2023-04-03T00:48:08;4.75;;;2.35;;
52674;SDS011;38569;52.722;6.440;2023-04-03T00:50:38;5.18;;;1.98;;
52674;SDS011;38569;52.722;6.440;2023-04-03T00:53:06;4.72;;;2.25;;
52674;SDS011;38569;52.722;6.440;2023-04-03T00:55:35;7.35;;;1.90;;
52674;SDS011;38569;52.722;6.440;2023-04-03T00:58:02;3.22;;;1.88;;
52674;SDS011;38569;52.722;6.440;2023-04-03T01:00:29;2.80;;;1.50;;
52674;SDS011;38569;52.722;6.440;2023-04-03T01:02:55;3.95;;;1.63;;
52674;SDS011;38569;52.722;6.440;2023-04-03T01:05:21;4.05;;;1.45;;
52674;SDS011;38569;52.722;6.440;2023-04-03T01:07:47;7.20;;;1.80;;
52674;SDS011;38569;52.722;6.440;2023-04-03T01:10:15;2.60;;;1.70;;
52674;SDS011;38569;52.722;6.440;2023-04-03T01:12:45;4.20;;;1.63;;
52674;SDS011;38569;52.722;6.440;2023-04-03T01:15:13;6.97;;;1.80;;
52674;SDS011;38569;52.722;6.440;2023-04-03T01:17:52;5.13;;;2.05;;
52674;SDS011;38569;52.722;6.440;2023-04-03T01:25:41;2.97;;;1.70;;
52674;SDS011;38569;52.722;6.440;2023-04-03T01:28:20;4.40;;;1.98;;
52674;SDS011;38569;52.722;6.440;2023-04-03T01:31:08;7.68;;;1.80;;
52674;SDS011;38569;52.722;6.440;2023-04-03T01:33:40;5.15;;;1.90;;
52674;SDS011;38569;52.722;6.440;2023-04-03T01:36:06;4.47;;;2.08;;
52674;SDS011;38569;52.722;6.440;2023-04-03T01:38:33;4.65;;;2.00;;
52674;SDS011;38569;52.722;6.440;2023-04-03T01:40:58;3.17;;;1.50;;
52674;SDS011;38569;52.722;6.440;2023-04-03T01:43:24;4.57;;;1.80;;
52674;SDS011;38569;52.722;6.440;2023-04-03T01:45:50;4.15;;;2.38;;
52674;SDS011;38569;52.722;6.440;2023-04-03T01:48:17;5.85;;;2.28;;
52674;SDS011;38569;52.722;6.440;2023-04-03T01:50:43;7.35;;;2.30;;
52674;SDS011;38569;52.722;6.440;2023-04-03T01:53:09;5.28;;;2.50;;
52674;SDS011;38569;52.722;6.440;2023-04-03T01:55:35;6.07;;;2.15;;
52674;SDS011;38569;52.722;6.440;2023-04-03T01:58:01;3.75;;;1.70;;
52674;SDS011;38569;52.722;6.440;2023-04-03T02:00:26;3.05;;;1.50;;
52674;SDS011;38569;52.722;6.440;2023-04-03T02:02:52;4.22;;;2.15;;
52674;SDS011;38569;52.722;6.440;2023-04-03T02:05:18;6.05;;;2.40;;
52674;SDS011;38569;52.722;6.440;2023-04-03T02:07:43;7.03;;;2.38;;
52674;SDS011;38569;52.722;6.440;2023-04-03T02:10:09;3.72;;;2.13;;
52674;SDS011;38569;52.722;6.440;2023-04-03T02:12:35;5.40;;;2.25;;
52674;SDS011;38569;52.722;6.440;2023-04-03T02:15:01;6.28;;;2.20;;
52674;SDS011;38569;52.722;6.440;2023-04-03T02:17:27;4.35;;;2.20;;
52674;SDS011;38569;52.722;6.440;2023-04-03T02:19:52;4.22;;;2.30;;
52674;SDS011;38569;52.722;6.440;2023-04-03T02:22:18;4.93;;;1.90;;
52674;SDS011;38569;52.722;6.440;2023-04-03T02:24:45;7.05;;;2.03;;
52674;SDS011;38569;52.722;6.440;2023-04-03T02:27:10;6.85;;;2.13;;
52674;SDS011;38569;52.722;6.440;2023-04-03T02:29:36;5.93;;;2.25;;
52674;SDS011;38569;52.722;6.440;2023-04-03T02:32:02;9.25;;;3.97;;
52674;SDS011;38569;52.722;6.440;2023-04-03T02:34:28;5.78;;;2.50;;
52674;SDS011;38569;52.722;6.440;2023-04-03T02:36:54;6.25;;;2.47;;
52674;SDS011;38569;52.722;6.440;2023-04-03T02:39:20;9.48;;;2.30;;
52674;SDS011;38569;52.722;6.440;2023-04-03T02:41:45;7.00;;;2.50;;
52674;SDS011;38569;52.722;6.440;2023-04-03T02:44:11;4.75;;;2.22;;
52674;SDS011;38569;52.722;6.440;2023-04-03T02:46:37;6.47;;;2.15;;
52674;SDS011;38569;52.722;6.440;2023-04-03T02:49:03;4.32;;;2.70;;
52674;SDS011;38569;52.722;6.440;2023-04-03T02:51:29;7.55;;;2.35;;
52674;SDS011;38569;52.722;6.440;2023-04-03T02:53:55;5.53;;;2.40;;
52674;SDS011;38569;52.722;6.440;2023-04-03T02:56:21;7.70;;;3.30;;
52674;SDS011;38569;52.722;6.440;2023-04-03T02:58:47;6.63;;;2.38;;
52674;SDS011;38569;52.722;6.440;2023-04-03T03:01:13;3.95;;;2.33;;
52674;SDS011;38569;52.722;6.440;2023-04-03T03:03:39;5.63;;;2.75;;
52674;SDS011;38569;52.722;6.440;2023-04-03T03:06:12;7.65;;;2.53;;
52674;SDS011;38569;52.722;6.440;2023-04-03T03:08:40;5.28;;;2.88;;
52674;SDS011;38569;52.722;6.440;2023-04-03T03:11:06;6.63;;;2.28;;
52674;SDS011;38569;52.722;6.440;2023-04-03T03:13:32;8.32;;;3.17;;
52674;SDS011;38569;52.722;6.440;2023-04-03T03:15:58;5.45;;;2.75;;
52674;SDS011;38569;52.722;6.440;2023-04-03T03:18:24;4.18;;;2.33;;
52674;SDS011;38569;52.722;6.440;2023-04-03T03:20:54;7.13;;;2.90;;
52674;SDS011;38569;52.722;6.440;2023-04-03T03:23:22;7.63;;;2.80;;
52674;SDS011;38569;52.722;6.440;2023-04-03T03:25:53;10.05;;;3.47;;
52674;SDS011;38569;52.722;6.440;2023-04-03T03:28:27;6.35;;;2.95;;
52674;SDS011;38569;52.722;6.440;2023-04-03T03:30:53;4.57;;;3.00;;
52674;SDS011;38569;52.722;6.440;2023-04-03T03:33:18;8.15;;;2.67;;
52674;SDS011;38569;52.722;6.440;2023-04-03T03:35:44;5.82;;;3.75;;
52674;SDS011;38569;52.722;6.440;2023-04-03T03:38:10;5.60;;;3.00;;
52674;SDS011;38569;52.722;6.440;2023-04-03T03:40:36;5.88;;;2.55;;
52674;SDS011;38569;52.722;6.440;2023-04-03T03:43:01;9.13;;;3.30;;
52674;SDS011;38569;52.722;6.440;2023-04-03T03:45:27;4.50;;;2.67;;
52674;SDS011;38569;52.722;6.440;2023-04-03T03:47:53;6.75;;;2.90;;
52674;SDS011;38569;52.722;6.440;2023-04-03T03:50:19;10.95;;;2.83;;
52674;SDS011;38569;52.722;6.440;2023-04-03T03:52:45;6.55;;;2.38;;
52674;SDS011;38569;52.722;6.440;2023-04-03T03:55:11;6.75;;;2.95;;
52674;SDS011;38569;52.722;6.440;2023-04-03T03:57:36;4.75;;;2.83;;
52674;SDS011;38569;52.722;6.440;2023-04-03T04:00:02;5.38;;;3.03;;
52674;SDS011;38569;52.722;6.440;2023-04-03T04:02:29;8.50;;;3.80;;
52674;SDS011;38569;52.722;6.440;2023-04-03T04:04:55;4.22;;;2.85;;
52674;SDS011;38569;52.722;6.440;2023-04-03T04:07:21;6.50;;;2.72;;
52674;SDS011;38569;52.722;6.440;2023-04-03T04:09:47;7.30;;;2.90;;
52674;SDS011;38569;52.722;6.440;2023-04-03T04:12:12;6.47;;;3.00;;
52674;SDS011;38569;52.722;6.440;2023-04-03T04:14:38;6.72;;;2.80;;
52674;SDS011;38569;52.722;6.440;2023-04-03T04:17:05;7.43;;;2.90;;
52674;SDS011;38569;52.722;6.440;2023-04-03T04:19:30;5.60;;;2.90;;
52674;SDS011;38569;52.722;6.440;2023-04-03T04:21:56;8.27;;;2.80;;
52674;SDS011;38569;52.722;6.440;2023-04-03T04:24:22;6.05;;;2.47;;
52674;SDS011;38569;52.722;6.440;2023-04-03T04:26:48;7.55;;;2.28;;
52674;SDS011;38569;52.722;6.440;2023-04-03T04:29:13;11.23;;;2.92;;
52674;SDS011;38569;52.722;6.440;2023-04-03T04:31:39;7.78;;;3.75;;
52674;SDS011;38569;52.722;6.440;2023-04-03T04:34:05;7.38;;;2.85;;
52674;SDS011;38569;52.722;6.440;2023-04-03T04:36:31;8.75;;;3.25;;
52674;SDS011;38569;52.722;6.440;2023-04-03T04:38:56;7.05;;;2.95;;
52674;SDS011;38569;52.722;6.440;2023-04-03T04:41:23;8.32;;;2.75;;
52674;SDS011;38569;52.722;6.440;2023-04-03T04:43:50;5.30;;;2.90;;
52674;SDS011;38569;52.722;6.440;2023-04-03T04:46:15;5.03;;;2.83;;
52674;SDS011;38569;52.722;6.440;2023-04-03T04:48:41;6.07;;;3.30;;
52674;SDS011;38569;52.722;6.440;2023-04-03T04:51:07;8.30;;;3.20;;
52674;SDS011;38569;52.722;6.440;2023-04-03T04:53:33;10.98;;;3.08;;
52674;SDS011;38569;52.722;6.440;2023-04-03T04:55:59;5.72;;;2.85;;
52674;SDS011;38569;52.722;6.440;2023-04-03T04:58:24;6.65;;;3.55;;
52674;SDS011;38569;52.722;6.440;2023-04-03T05:00:57;4.80;;;2.85;;
52674;SDS011;38569;52.722;6.440;2023-04-03T05:03:24;6.20;;;2.80;;
52674;SDS011;38569;52.722;6.440;2023-04-03T05:05:50;8.15;;;4.63;;
52674;SDS011;38569;52.722;6.440;2023-04-03T05:08:16;6.53;;;2.75;;
52674;SDS011;38569;52.722;6.440;2023-04-03T05:10:41;8.05;;;3.03;;
52674;SDS011;38569;52.722;6.440;2023-04-03T05:13:07;9.43;;;3.05;;
52674;SDS011;38569;52.722;6.440;2023-04-03T05:15:33;6.45;;;3.08;;
52674;SDS011;38569;52.722;6.440;2023-04-03T05:17:58;8.50;;;3.28;;
52674;SDS011;38569;52.722;6.440;2023-04-03T05:20:24;7.20;;;2.78;;
52674;SDS011;38569;52.722;6.440;2023-04-03T05:22:50;7.45;;;3.05;;
52674;SDS011;38569;52.722;6.440;2023-04-03T05:25:16;5.45;;;2.65;;
52674;SDS011;38569;52.722;6.440;2023-04-03T05:27:41;6.18;;;2.53;;
52674;SDS011;38569;52.722;6.440;2023-04-03T05:30:07;16.20;;;5.13;;
52674;SDS011;38569;52.722;6.440;2023-04-03T05:32:33;6.30;;;2.80;;
52674;SDS011;38569;52.722;6.440;2023-04-03T05:34:59;7.25;;;3.30;;
52674;SDS011;38569;52.722;6.440;2023-04-03T05:37:25;8.20;;;2.85;;
52674;SDS011;38569;52.722;6.440;2023-04-03T05:39:51;10.65;;;3.38;;
52674;SDS011;38569;52.722;6.440;2023-04-03T05:42:17;10.82;;;3.63;;
52674;SDS011;38569;52.722;6.440;2023-04-03T05:44:42;9.15;;;3.40;;
52674;SDS011;38569;52.722;6.440;2023-04-03T05:47:09;13.25;;;4.30;;
52674;SDS011;38569;52.722;6.440;2023-04-03T05:49:35;12.52;;;3.20;;
52674;SDS011;38569;52.722;6.440;2023-04-03T05:52:01;7.45;;;3.20;;
52674;SDS011;38569;52.722;6.440;2023-04-03T05:54:27;6.78;;;2.88;;
52674;SDS011;38569;52.722;6.440;2023-04-03T05:56:54;6.95;;;3.25;;
52674;SDS011;38569;52.722;6.440;2023-04-03T05:59:21;5.75;;;2.88;;
52674;SDS011;38569;52.722;6.440;2023-04-03T06:01:47;7.75;;;4.25;;
52674;SDS011;38569;52.722;6.440;2023-04-03T06:04:13;11.68;;;4.88;;
52674;SDS011;38569;52.722;6.440;2023-04-03T06:06:53;4.25;;;2.70;;
52674;SDS011;38569;52.722;6.440;2023-04-03T06:09:23;9.93;;;3.28;;
52674;SDS011;38569;52.722;6.440;2023-04-03T06:11:51;9.52;;;3.13;;
52674;SDS011;38569;52.722;6.440;2023-04-03T06:14:17;8.77;;;3.30;;
52674;SDS011;38569;52.722;6.440;2023-04-03T06:16:43;9.82;;;2.95;;
52674;SDS011;38569;52.722;6.440;2023-04-03T06:19:10;7.85;;;2.60;;
52674;SDS011;38569;52.722;6.440;2023-04-03T06:21:36;10.82;;;3.83;;
52674;SDS011;38569;52.722;6.440;2023-04-03T06:24:03;7.50;;;3.22;;
52674;SDS011;38569;52.722;6.440;2023-04-03T06:26:29;11.20;;;2.90;;
52674;SDS011;38569;52.722;6.440;2023-04-03T06:28:55;6.35;;;2.38;;
52674;SDS011;38569;52.722;6.440;2023-04-03T06:31:21;8.35;;;2.80;;
52674;SDS011;38569;52.722;6.440;2023-04-03T06:33:47;10.77;;;3.95;;
52674;SDS011;38569;52.722;6.440;2023-04-03T06:36:13;10.88;;;3.45;;
52674;SDS011;38569;52.722;6.440;2023-04-03T06:38:38;11.43;;;3.08;;
52674;SDS011;38569;52.722;6.440;2023-04-03T06:41:04;9.27;;;3.33;;
52674;SDS011;38569;52.722;6.440;2023-04-03T06:43:30;7.22;;;3.25;;
52674;SDS011;38569;52.722;6.440;2023-04-03T06:45:56;4.85;;;2.97;;
52674;SDS011;38569;52.722;6.440;2023-04-03T06:48:22;9.48;;;2.95;;
52674;SDS011;38569;52.722;6.440;2023-04-03T06:50:48;10.70;;;2.67;;
52674;SDS011;38569;52.722;6.440;2023-04-03T06:53:14;4.40;;;2.30;;
52674;SDS011;38569;52.722;6.440;2023-04-03T06:55:39;6.60;;;2.88;;
52674;SDS011;38569;52.722;6.440;2023-04-03T06:58:06;7.60;;;2.75;;
52674;SDS011;38569;52.722;6.440;2023-04-03T07:00:32;5.30;;;2.55;;
52674;SDS011;38569;52.722;6.440;2023-04-03T07:02:58;5.47;;;2.38;;
52674;SDS011;38569;52.722;6.440;2023-04-03T07:05:24;9.43;;;4.38;;
52674;SDS011;38569;52.722;6.440;2023-04-03T07:07:51;5.75;;;1.90;;
52674;SDS011;38569;52.722;6.440;2023-04-03T07:10:17;7.57;;;1.95;;
52674;SDS011;38569;52.722;6.440;2023-04-03T07:12:43;5.50;;;2.38;;
52674;SDS011;38569;52.722;6.440;2023-04-03T07:15:09;4.13;;;1.95;;
52674;SDS011;38569;52.722;6.440;2023-04-03T07:17:37;5.85;;;2.45;;
52674;SDS011;38569;52.722;6.440;2023-04-03T07:20:03;7.15;;;2.00;;
52674;SDS011;38569;52.722;6.440;2023-04-03T07:22:29;4.00;;;2.10;;
52674;SDS011;38569;52.722;6.440;2023-04-03T07:24:55;3.50;;;1.60;;
52674;SDS011;38569;52.722;6.440;2023-04-03T07:27:21;3.17;;;2.03;;
52674;SDS011;38569;52.722;6.440;2023-04-03T07:29:47;7.57;;;2.30;;
52674;SDS011;38569;52.722;6.440;2023-04-03T07:32:15;8.13;;;2.40;;
52674;SDS011;38569;52.722;6.440;2023-04-03T07:34:42;4.68;;;1.90;;
52674;SDS011;38569;52.722;6.440;2023-04-03T07:37:08;7.78;;;2.30;;
52674;SDS011;38569;52.722;6.440;2023-04-03T07:39:35;7.40;;;2.38;;
52674;SDS011;38569;52.722;6.440;2023-04-03T07:42:00;6.20;;;2.38;;
52674;SDS011;38569;52.722;6.440;2023-04-03T07:44:27;5.50;;;2.40;;
52674;SDS011;38569;52.722;6.440;2023-04-03T07:46:53;8.20;;;2.35;;
52674;SDS011;38569;52.722;6.440;2023-04-03T07:49:22;4.93;;;1.88;;
52674;SDS011;38569;52.722;6.440;2023-04-03T07:51:49;4.97;;;1.67;;
52674;SDS011;38569;52.722;6.440;2023-04-03T07:54:15;7.80;;;2.17;;
52674;SDS011;38569;52.722;6.440;2023-04-03T07:56:41;4.85;;;1.95;;
52674;SDS011;38569;52.722;6.440;2023-04-03T07:59:08;5.22;;;1.85;;
52674;SDS011;38569;52.722;6.440;2023-04-03T08:01:34;6.18;;;2.55;;
52674;SDS011;38569;52.722;6.440;2023-04-03T08:04:00;6.57;;;2.53;;
52674;SDS011;38569;52.722;6.440;2023-04-03T08:06:26;4.68;;;1.75;;
52674;SDS011;38569;52.722;6.440;2023-04-03T08:08:52;3.38;;;1.65;;
52674;SDS011;38569;52.722;6.440;2023-04-03T08:11:17;8.13;;;2.05;;
52674;SDS011;38569;52.722;6.440;2023-04-03T08:13:44;4.97;;;2.63;;
52674;SDS011;38569;52.722;6.440;2023-04-03T08:16:15;9.55;;;2.35;;
52674;SDS011;38569;52.722;6.440;2023-04-03T08:18:43;3.35;;;1.50;;
52674;SDS011;38569;52.722;6.440;2023-04-03T08:21:10;2.78;;;1.40;;
52674;SDS011;38569;52.722;6.440;2023-04-03T08:23:37;6.15;;;2.42;;
52674;SDS011;38569;52.722;6.440;2023-04-03T08:26:07;5.78;;;2.33;;
52674;SDS011;38569;52.722;6.440;2023-04-03T08:28:37;4.28;;;1.65;;
52674;SDS011;38569;52.722;6.440;2023-04-03T08:31:05;3.92;;;1.60;;
52674;SDS011;38569;52.722;6.440;2023-04-03T08:33:32;4.10;;;1.95;;
52674;SDS011;38569;52.722;6.440;2023-04-03T08:36:02;4.72;;;1.40;;
52674;SDS011;38569;52.722;6.440;2023-04-03T08:38:29;2.05;;;1.45;;
52674;SDS011;38569;52.722;6.440;2023-04-03T08:41:05;2.75;;;2.13;;
52674;SDS011;38569;52.722;6.440;2023-04-03T08:46:35;4.43;;;1.30;;
52674;SDS011;38569;52.722;6.440;2023-04-03T08:49:04;7.15;;;1.83;;
52674;SDS011;38569;52.722;6.440;2023-04-03T08:51:39;5.13;;;2.17;;
52674;SDS011;38569;52.722;6.440;2023-04-03T08:54:15;2.10;;;1.05;;
52674;SDS011;38569;52.722;6.440;2023-04-03T08:56:58;2.25;;;1.27;;
52674;SDS011;38569;52.722;6.440;2023-04-03T08:59:32;3.63;;;1.45;;
52674;SDS011;38569;52.722;6.440;2023-04-03T09:02:04;4.55;;;1.83;;
52674;SDS011;38569;52.722;6.440;2023-04-03T09:04:41;3.47;;;1.33;;
52674;SDS011;38569;52.722;6.440;2023-04-03T09:07:10;6.32;;;1.52;;
52674;SDS011;38569;52.722;6.440;2023-04-03T09:09:45;4.32;;;1.30;;
52674;SDS011;38569;52.722;6.440;2023-04-03T09:12:22;2.42;;;1.20;;
52674;SDS011;38569;52.722;6.440;2023-04-03T09:14:57;4.32;;;1.10;;
52674;SDS011;38569;52.722;6.440;2023-04-03T09:22:28;3.42;;;1.58;;
52674;SDS011;38569;52.722;6.440;2023-04-03T09:25:00;2.90;;;1.23;;
52674;SDS011;38569;52.722;6.440;2023-04-03T09:27:35;2.83;;;1.35;;
52674;SDS011;38569;52.722;6.440;2023-04-03T09:30:02;2.50;;;1.08;;
52674;SDS011;38569;52.722;6.440;2023-04-03T09:32:29;3.33;;;1.00;;
52674;SDS011;38569;52.722;6.440;2023-04-03T09:35:01;3.85;;;1.05;;
52674;SDS011;38569;52.722;6.440;2023-04-03T09:37:42;5.53;;;2.65;;
52674;SDS011;38569;52.722;6.440;2023-04-03T09:42:52;2.97;;;1.13;;
52674;SDS011;38569;52.722;6.440;2023-04-03T09:45:23;4.38;;;1.33;;
52674;SDS011;38569;52.722;6.440;2023-04-03T09:53:37;1.92;;;1.05;;
52674;SDS011;38569;52.722;6.440;2023-04-03T09:58:44;2.63;;;1.30;;
52674;SDS011;38569;52.722;6.440;2023-04-03T10:01:31;2.95;;;1.00;;
52674;SDS011;38569;52.722;6.440;2023-04-03T10:04:12;2.42;;;0.98;;
52674;SDS011;38569;52.722;6.440;2023-04-03T10:12:11;0.98;;;0.73;;
52674;SDS011;38569;52.722;6.440;2023-04-03T10:14:56;3.85;;;1.00;;
52674;SDS011;38569;52.722;6.440;2023-04-03T10:17:36;3.07;;;0.80;;
52674;SDS011;38569;52.722;6.440;2023-04-03T10:20:16;1.35;;;0.75;;
52674;SDS011;38569;52.722;6.440;2023-04-03T10:34:38;2.88;;;1.33;;
52674;SDS011;38569;52.722;6.440;2023-04-03T10:42:28;1.92;;;0.80;;
52674;SDS011;38569;52.722;6.440;2023-04-03T10:53:31;5.00;;;1.10;;
52674;SDS011;38569;52.722;6.440;2023-04-03T10:58:44;3.67;;;1.33;;
52674;SDS011;38569;52.722;6.440;2023-04-03T11:01:17;1.90;;;1.02;;
52674;SDS011;38569;52.722;6.440;2023-04-03T11:03:46;3.47;;;1.15;;
52674;SDS011;38569;52.722;6.440;2023-04-03T11:06:16;6.72;;;1.13;;
52674;SDS011;38569;52.722;6.440;2023-04-03T11:08:51;2.80;;;0.90;;
52674;SDS011;38569;52.722;6.440;2023-04-03T11:11:27;2.45;;;0.90;;
52674;SDS011;38569;52.722;6.440;2023-04-03T11:14:18;1.33;;;0.98;;
52674;SDS011;38569;52.722;6.440;2023-04-03T11:17:05;2.30;;;1.13;;
52674;SDS011;38569;52.722;6.440;2023-04-03T11:19:42;3.33;;;1.13;;
52674;SDS011;38569;52.722;6.440;2023-04-03T11:22:50;2.20;;;1.10;;
52674;SDS011;38569;52.722;6.440;2023-04-03T11:25:19;3.00;;;1.13;;
52674;SDS011;38569;52.722;6.440;2023-04-03T11:38:22;2.47;;;1.25;;
52674;SDS011;38569;52.722;6.440;2023-04-03T11:40:52;4.15;;;1.27;;
52674;SDS011;38569;52.722;6.440;2023-04-03T11:50:54;5.68;;;1.90;;
52674;SDS011;38569;52.722;6.440;2023-04-03T11:53:26;1.80;;;1.23;;
52674;SDS011;38569;52.722;6.440;2023-04-03T11:55:54;2.88;;;0.90;;
52674;SDS011;38569;52.722;6.440;2023-04-03T12:01:03;4.25;;;0.85;;
52674;SDS011;38569;52.722;6.440;2023-04-03T12:03:35;2.67;;;1.10;;
52674;SDS011;38569;52.722;6.440;2023-04-03T12:08:57;2.97;;;1.38;;
52674;SDS011;38569;52.722;6.440;2023-04-03T12:11:28;2.42;;;1.00;;
52674;SDS011;38569;52.722;6.440;2023-04-03T12:24:36;3.15;;;1.23;;
52674;SDS011;38569;52.722;6.440;2023-04-03T12:29:55;3.95;;;1.13;;
52674;SDS011;38569;52.722;6.440;2023-04-03T12:35:21;3.22;;;1.33;;
52674;SDS011;38569;52.722;6.440;2023-04-03T12:48:25;3.33;;;1.10;;
52674;SDS011;38569;52.722;6.440;2023-04-03T12:50:52;5.93;;;1.35;;
52674;SDS011;38569;52.722;6.440;2023-04-03T12:53:19;4.00;;;1.45;;
52674;SDS011;38569;52.722;6.440;2023-04-03T12:55:53;4.03;;;1.50;;
52674;SDS011;38569;52.722;6.440;2023-04-03T12:58:24;4.93;;;1.25;;
52674;SDS011;38569;52.722;6.440;2023-04-03T13:00:59;3.25;;;1.35;;
52674;SDS011;38569;52.722;6.440;2023-04-03T13:03:34;3.67;;;1.20;;
52674;SDS011;38569;52.722;6.440;2023-04-03T13:06:02;4.07;;;1.35;;
52674;SDS011;38569;52.722;6.440;2023-04-03T13:08:29;4.25;;;1.33;;
52674;SDS011;38569;52.722;6.440;2023-04-03T13:13:30;3.72;;;1.60;;
52674;SDS011;38569;52.722;6.440;2023-04-03T13:15:56;4.32;;;1.10;;
52674;SDS011;38569;52.722;6.440;2023-04-03T13:18:30;3.33;;;1.20;;
52674;SDS011;38569;52.722;6.440;2023-04-03T13:23:25;2.53;;;1.10;;
52674;SDS011;38569;52.722;6.440;2023-04-03T13:25:51;5.15;;;1.30;;
52674;SDS011;38569;52.722;6.440;2023-04-03T13:28:19;3.47;;;1.25;;
52674;SDS011;38569;52.722;6.440;2023-04-03T13:33:32;3.17;;;1.30;;
52674;SDS011;38569;52.722;6.440;2023-04-03T13:36:07;4.43;;;1.20;;
52674;SDS011;38569;52.722;6.440;2023-04-03T13:38:42;4.85;;;1.15;;
52674;SDS011;38569;52.722;6.440;2023-04-03T13:44:14;3.15;;;1.35;;
52674;SDS011;38569;52.722;6.440;2023-04-03T13:46:46;4.95;;;2.05;;
52674;SDS011;38569;52.722;6.440;2023-04-03T13:49:17;2.08;;;1.10;;
52674;SDS011;38569;52.722;6.440;2023-04-03T13:51:52;3.88;;;1.13;;
52674;SDS011;38569;52.722;6.440;2023-04-03T13:54:20;5.25;;;1.83;;
52674;SDS011;38569;52.722;6.440;2023-04-03T13:56:53;1.88;;;1.10;;
52674;SDS011;38569;52.722;6.440;2023-04-03T13:59:30;3.08;;;1.33;;
52674;SDS011;38569;52.722;6.440;2023-04-03T14:07:18;2.92;;;1.40;;
52674;SDS011;38569;52.722;6.440;2023-04-03T14:09:46;2.55;;;1.10;;
52674;SDS011;38569;52.722;6.440;2023-04-03T14:12:15;7.43;;;1.90;;
52674;SDS011;38569;52.722;6.440;2023-04-03T14:14:49;2.50;;;1.27;;
52674;SDS011;38569;52.722;6.440;2023-04-03T14:17:19;4.25;;;1.33;;
52674;SDS011;38569;52.722;6.440;2023-04-03T14:19:46;3.45;;;1.50;;
52674;SDS011;38569;52.722;6.440;2023-04-03T14:24:40;3.83;;;1.70;;
52674;SDS011;38569;52.722;6.440;2023-04-03T14:27:11;4.22;;;1.40;;
52674;SDS011;38569;52.722;6.440;2023-04-03T14:29:45;3.47;;;1.60;;
52674;SDS011;38569;52.722;6.440;2023-04-03T14:32:12;2.58;;;1.27;;
52674;SDS011;38569;52.722;6.440;2023-04-03T14:34:39;3.25;;;1.30;;
52674;SDS011;38569;52.722;6.440;2023-04-03T14:37:09;5.90;;;1.50;;
52674;SDS011;38569;52.722;6.440;2023-04-03T14:42:05;4.88;;;1.80;;
52674;SDS011;38569;52.722;6.440;2023-04-03T14:44:35;5.03;;;1.33;;
52674;SDS011;38569;52.722;6.440;2023-04-03T14:47:01;3.72;;;1.58;;
52674;SDS011;38569;52.722;6.440;2023-04-03T14:49:27;2.92;;;1.40;;
52674;SDS011;38569;52.722;6.440;2023-04-03T14:51:55;5.18;;;1.90;;
52674;SDS011;38569;52.722;6.440;2023-04-03T14:54:23;6.13;;;1.50;;
52674;SDS011;38569;52.722;6.440;2023-04-03T14:56:54;2.30;;;1.25;;
52674;SDS011;38569;52.722;6.440;2023-04-03T14:59:37;3.17;;;1.40;;
52674;SDS011;38569;52.722;6.440;2023-04-03T15:02:09;4.70;;;1.48;;
52674;SDS011;38569;52.722;6.440;2023-04-03T15:04:57;2.55;;;1.40;;
52674;SDS011;38569;52.722;6.440;2023-04-03T15:07:25;4.13;;;1.80;;
52674;SDS011;38569;52.722;6.440;2023-04-03T15:09:53;4.13;;;2.10;;
52674;SDS011;38569;52.722;6.440;2023-04-03T15:12:22;1.73;;;1.13;;
52674;SDS011;38569;52.722;6.440;2023-04-03T15:14:49;3.67;;;1.42;;
52674;SDS011;38569;52.722;6.440;2023-04-03T15:17:16;2.92;;;1.23;;
52674;SDS011;38569;52.722;6.440;2023-04-03T15:19:45;5.15;;;1.38;;
52674;SDS011;38569;52.722;6.440;2023-04-03T15:22:15;3.08;;;1.45;;
52674;SDS011;38569;52.722;6.440;2023-04-03T15:24:43;2.75;;;1.23;;
52674;SDS011;38569;52.722;6.440;2023-04-03T15:27:10;2.97;;;1.63;;
52674;SDS011;38569;52.722;6.440;2023-04-03T15:29:37;3.88;;;1.42;;
52674;SDS011;38569;52.722;6.440;2023-04-03T15:32:04;2.40;;;1.52;;
52674;SDS011;38569;52.722;6.440;2023-04-03T15:34:30;1.85;;;1.17;;
52674;SDS011;38569;52.722;6.440;2023-04-03T15:36:56;5.15;;;2.10;;
52674;SDS011;38569;52.722;6.440;2023-04-03T15:39:22;1.77;;;1.10;;
52674;SDS011;38569;52.722;6.440;2023-04-03T15:41:50;3.67;;;1.50;;
52674;SDS011;38569;52.722;6.440;2023-04-03T15:44:17;2.35;;;1.10;;
52674;SDS011;38569;52.722;6.440;2023-04-03T15:46:44;3.25;;;1.52;;
52674;SDS011;38569;52.722;6.440;2023-04-03T15:49:12;4.20;;;2.20;;
52674;SDS011;38569;52.722;6.440;2023-04-03T15:51:38;2.70;;;1.15;;
52674;SDS011;38569;52.722;6.440;2023-04-03T15:54:04;7.47;;;2.13;;
52674;SDS011;38569;52.722;6.440;2023-04-03T15:56:29;4.53;;;1.63;;
52674;SDS011;38569;52.722;6.440;2023-04-03T15:58:55;2.50;;;1.40;;
52674;SDS011;38569;52.722;6.440;2023-04-03T16:01:21;3.35;;;1.63;;
52674;SDS011;38569;52.722;6.440;2023-04-03T16:03:46;3.53;;;1.70;;
52674;SDS011;38569;52.722;6.440;2023-04-03T16:06:13;3.75;;;1.52;;
52674;SDS011;38569;52.722;6.440;2023-04-03T16:08:40;3.85;;;1.77;;
52674;SDS011;38569;52.722;6.440;2023-04-03T16:11:06;3.67;;;1.48;;
52674;SDS011;38569;52.722;6.440;2023-04-03T16:13:32;6.05;;;2.00;;
52674;SDS011;38569;52.722;6.440;2023-04-03T16:15:59;2.88;;;1.30;;
52674;SDS011;38569;52.722;6.440;2023-04-03T16:18:26;3.63;;;1.85;;
52674;SDS011;38569;52.722;6.440;2023-04-03T16:20:53;3.72;;;1.60;;
52674;SDS011;38569;52.722;6.440;2023-04-03T16:23:18;3.50;;;1.50;;
52674;SDS011;38569;52.722;6.440;2023-04-03T16:25:45;2.80;;;1.23;;
52674;SDS011;38569;52.722;6.440;2023-04-03T16:28:15;5.50;;;1.58;;
52674;SDS011;38569;52.722;6.440;2023-04-03T16:30:43;3.35;;;1.90;;
52674;SDS011;38569;52.722;6.440;2023-04-03T16:33:11;4.38;;;1.95;;
52674;SDS011;38569;52.722;6.440;2023-04-03T16:35:37;3.92;;;1.85;;
52674;SDS011;38569;52.722;6.440;2023-04-03T16:38:03;4.20;;;1.88;;
52674;SDS011;38569;52.722;6.440;2023-04-03T16:40:29;6.78;;;2.55;;
52674;SDS011;38569;52.722;6.440;2023-04-03T16:42:55;7.03;;;3.15;;
52674;SDS011;38569;52.722;6.440;2023-04-03T16:45:20;2.95;;;1.83;;
52674;SDS011;38569;52.722;6.440;2023-04-03T16:47:46;2.85;;;1.50;;
52674;SDS011;38569;52.722;6.440;2023-04-03T16:50:12;5.00;;;2.35;;
52674;SDS011;38569;52.722;6.440;2023-04-03T16:52:38;4.78;;;1.67;;
52674;SDS011;38569;52.722;6.440;2023-04-03T16:55:04;4.07;;;1.23;;
52674;SDS011;38569;52.722;6.440;2023-04-03T16:57:30;5.72;;;1.90;;
52674;SDS011;38569;52.722;6.440;2023-04-03T16:59:56;3.70;;;1.65;;
52674;SDS011;38569;52.722;6.440;2023-04-03T17:02:22;3.38;;;1.80;;
52674;SDS011;38569;52.722;6.440;2023-04-03T17:04:51;4.00;;;1.80;;